Idaho, Alabama
Current Conditions -  °F | °C
As of 4:55 PM on Wednesday 26 Nov 2014 (Local Time) from KALX Reporting Station
Clear Clear  
Wind Chill: 54°   Ceiling: Unl
Heat Index: 54°   Visibility: 10mi
Dew Point: 26°   Wind: 0mph
Humidity: 34%   Direction: NA
Pressure: 30.09"   Gusts: NA
Location:  33.2143°N, 85.8209°W
Report Text: KALX 262255Z AUTO 00000KT 10SM CLR 12/M03 A3009 RMK AO2 LTG DSNT SE T01231031
Loading
Personal Weather Stations






























Interactive Weather Map New forecast layout! Learn more

10-Day Weather Forecast

Advertisements
Track Severe Weather on mobile